Time;durP1;ratioP1;P1;durP2;ratioP2;P2;SDS_P1;SDS_P2;PMS_P1;PMS_P2;Temp;Humidity;BMP_temperature;BMP_pressure;BME280_temperature;BME280_humidity;BME280_pressure;Samples;Min_cycle;Max_cycle;Signal;HPM_P1;HPM_P2
2022/10/14 00:01:51;;;;;;;;;;;;;;;20.25;50.21;95497.31;6128032;19;1569;-87
2022/10/14 00:03:54;;;;;;;;;;;;;;;20.25;50.32;95491.97;6126715;19;1516;-86
2022/10/14 00:05:58;;;;;;;;;;;;;;;20.25;49.94;95486.66;6109121;19;1375;-86
2022/10/14 00:08:03;;;;;;;;;;;;;;;20.24;50.36;95486.88;6128337;19;1531;-86
2022/10/14 00:10:08;;;;;;;;;;;;;;;20.23;50.07;95486.03;6126799;19;1520;-86
2022/10/14 00:12:11;;;;;;;;;;;;;;;20.24;50.28;95484.19;6126421;19;1555;-86
2022/10/14 00:14:16;;;;;;;;;;;;;;;20.24;50.05;95479.66;6129717;19;1500;-87
2022/10/14 00:16:21;;;;;;;;;;;;;;;20.23;49.91;95472.69;6124273;19;1846;-85
2022/10/14 00:18:24;;;;;;;;;;;;;;;20.23;49.85;95478.03;6110406;19;1535;-86
2022/10/14 00:20:28;;;;;;;;;;;;;;;20.24;49.85;95476.19;6124308;19;1445;-88
2022/10/14 00:22:32;;;;;;;;;;;;;;;20.27;49.99;95473.13;6127146;19;1537;-87
2022/10/14 00:24:38;;;;;;;;;;;;;;;20.28;50.28;95472.09;6127588;19;1537;-88
2022/10/14 00:26:42;;;;;;;;;;;;;;;20.27;50.04;95471.28;6127973;19;1541;-88
2022/10/14 00:28:45;;;;;;;;;;;;;;;20.27;50.55;95465.94;6117834;19;1485;-88
2022/10/14 00:30:56;;;;;;;;;;;;;;;20.27;50.59;95471.28;6116303;19;1453;-86
2022/10/14 00:32:59;;;;;;;;;;;;;;;20.28;50.14;95467.56;6128415;19;1449;-87
2022/10/14 00:35:02;;;;;;;;;;;;;;;20.27;50.54;95468.59;6128436;19;1430;-87
2022/10/14 00:37:06;;;;;;;;;;;;;;;20.27;50.45;95468.59;6126771;19;1849;-86
2022/10/14 00:39:09;;;;;;;;;;;;;;;20.27;50.04;95467.78;6125362;19;1430;-86
2022/10/14 00:41:16;;;;;;;;;;;;;;;20.28;50.50;95472.09;6109046;19;1437;-86
2022/10/14 00:43:20;;;;;;;;;;;;;;;20.27;50.21;95465.94;6128628;19;1394;-87
2022/10/14 00:45:25;;;;;;;;;;;;;;;20.28;50.44;95472.91;6127425;19;1508;-86
2022/10/14 00:47:29;;;;;;;;;;;;;;;20.26;50.03;95469.63;6126407;19;1548;-86
2022/10/14 00:49:35;;;;;;;;;;;;;;;20.28;50.39;95470.22;6122820;19;1398;-87
2022/10/14 00:51:40;;;;;;;;;;;;;;;20.28;49.99;95472.09;6118031;19;1472;-87
2022/10/14 00:53:44;;;;;;;;;;;;;;;20.27;50.33;95471.28;6118871;19;1629;-86
2022/10/14 00:55:48;;;;;;;;;;;;;;;20.28;50.12;95469.41;6123815;19;1493;-86
2022/10/14 00:57:54;;;;;;;;;;;;;;;20.26;50.32;95461.63;6127183;19;1853;-87
2022/10/14 01:00:00;;;;;;;;;;;;;;;20.26;49.97;95461.63;6128839;19;1438;-86
2022/10/14 01:02:03;;;;;;;;;;;;;;;20.26;50.05;95452.78;6126877;19;1468;-84
2022/10/14 01:04:07;;;;;;;;;;;;;;;20.27;50.08;95457.94;6108438;19;1429;-85
2022/10/14 01:06:16;;;;;;;;;;;;;;;20.25;50.10;95454.63;6126520;19;1516;-86
2022/10/14 01:08:24;;;;;;;;;;;;;;;20.27;50.24;95457.09;6125600;19;1517;-85
2022/10/14 01:10:32;;;;;;;;;;;;;;;20.25;50.13;95449.28;6124771;19;1594;-84
2022/10/14 01:12:38;;;;;;;;;;;;;;;20.27;50.03;95446.44;6126977;19;1406;-85
2022/10/14 01:14:50;;;;;;;;;;;;;;;20.25;50.06;95435.13;6114955;19;1533;-85
2022/10/14 01:16:57;;;;;;;;;;;;;;;20.26;49.98;95445.63;6121912;19;1862;-85
2022/10/14 01:19:07;;;;;;;;;;;;;;;20.25;50.25;95435.94;6125616;19;1519;-86
2022/10/14 01:21:18;;;;;;;;;;;;;;;20.25;50.02;95435.94;6121999;19;1482;-85
2022/10/14 01:23:36;;;;;;;;;;;;;;;20.25;50.33;95427.94;6124874;19;1600;-85
2022/10/14 01:25:50;;;;;;;;;;;;;;;20.25;49.98;95416.44;6125462;19;1426;-85
2022/10/14 01:27:59;;;;;;;;;;;;;;;20.25;50.34;95429.78;6113812;19;1441;-85
2022/10/14 01:30:26;;;;;;;;;;;;;;;20.25;50.33;95427.13;6126244;19;1500;-84
2022/10/14 01:32:31;;;;;;;;;;;;;;;20.25;49.97;95421.78;6122456;19;1391;-84
2022/10/14 01:34:40;;;;;;;;;;;;;;;20.24;50.08;95426.31;6122234;19;1613;-85
2022/10/14 01:36:47;;;;;;;;;;;;;;;20.25;49.86;95422.59;6124701;19;1857;-85
2022/10/14 01:38:53;;;;;;;;;;;;;;;20.24;50.13;95420.97;6104848;19;1623;-86
2022/10/14 01:41:00;;;;;;;;;;;;;;;20.24;49.88;95417.47;6123750;19;1539;-86
2022/10/14 01:43:05;;;;;;;;;;;;;;;20.27;50.08;95422.41;6124908;19;1446;-88
2022/10/14 01:45:12;;;;;;;;;;;;;;;20.27;50.34;95414.41;6123941;19;1424;-87
2022/10/14 01:47:18;;;;;;;;;;;;;;;20.27;50.45;95423.22;6126285;19;1469;-87
2022/10/14 01:49:26;;;;;;;;;;;;;;;20.28;50.18;95411.53;6108441;19;1449;-87
2022/10/14 01:51:32;;;;;;;;;;;;;;;20.29;50.17;95407.03;6124480;19;1438;-87
2022/10/14 01:53:38;;;;;;;;;;;;;;;20.28;50.41;95408.88;6125850;19;1532;-87
2022/10/14 01:55:43;;;;;;;;;;;;;;;20.27;50.10;95407.22;6122437;19;1531;-87
2022/10/14 01:57:48;;;;;;;;;;;;;;;20.29;50.27;95410.53;6125496;19;1849;-86
2022/10/14 01:59:52;;;;;;;;;;;;;;;20.29;50.46;95407.03;6123113;19;1473;-87
2022/10/14 02:01:56;;;;;;;;;;;;;;;20.27;50.04;95399.22;6109116;19;1374;-86
2022/10/14 02:03:59;;;;;;;;;;;;;;;20.28;50.12;95408.03;6127640;19;1509;-87
2022/10/14 02:06:07;;;;;;;;;;;;;;;20.28;50.17;95416.06;6124417;19;1512;-87
2022/10/14 02:08:15;;;;;;;;;;;;;;;20.28;49.99;95402.72;6122907;19;1433;-87
2022/10/14 02:10:26;;;;;;;;;;;;;;;20.27;50.10;95409.06;6123276;19;1484;-86
2022/10/14 02:12:33;;;;;;;;;;;;;;;20.28;50.05;95408.03;6104437;19;1434;-87
2022/10/14 02:14:41;;;;;;;;;;;;;;;20.26;50.30;95410.94;6122238;19;1519;-86
2022/10/14 02:16:50;;;;;;;;;;;;;;;20.26;50.04;95410.94;6125105;19;1853;-86
2022/10/14 02:18:59;;;;;;;;;;;;;;;20.27;50.08;95401.06;6123400;19;1454;-86
2022/10/14 02:21:10;;;;;;;;;;;;;;;20.25;50.18;95395.91;6124155;19;1438;-87
2022/10/14 02:23:16;;;;;;;;;;;;;;;20.27;50.35;95409.06;6114237;19;1510;-87
2022/10/14 02:25:21;;;;;;;;;;;;;;;20.25;50.22;95401.25;6114522;19;1567;-82
2022/10/14 02:27:26;;;;;;;;;;;;;;;20.26;49.97;95405.59;6126296;19;1634;-87
2022/10/14 02:29:32;;;;;;;;;;;;;;;20.25;50.32;95400.44;6124617;19;1599;-87
2022/10/14 02:31:37;;;;;;;;;;;;;;;20.26;50.28;95399.41;6124789;19;1512;-86
2022/10/14 02:33:42;;;;;;;;;;;;;;;20.27;49.92;95401.06;6123714;19;1454;-86
2022/10/14 02:35:45;;;;;;;;;;;;;;;20.27;49.85;95401.06;6103927;19;1519;-86
2022/10/14 02:37:53;;;;;;;;;;;;;;;20.26;50.11;95399.41;6125273;19;1850;-86
2022/10/14 02:39:59;;;;;;;;;;;;;;;20.25;50.17;95389.78;6124952;19;1477;-86
2022/10/14 02:42:03;;;;;;;;;;;;;;;20.25;50.05;95393.25;6126040;19;1453;-86
2022/10/14 02:44:06;;;;;;;;;;;;;;;20.25;49.90;95395.91;6122928;19;1527;-86
2022/10/14 02:46:10;;;;;;;;;;;;;;;20.25;50.04;95398.59;6114560;19;1494;-86
2022/10/14 02:48:14;;;;;;;;;;;;;;;20.25;49.88;95397.78;6115661;19;1526;-83
2022/10/14 02:50:18;;;;;;;;;;;;;;;20.24;50.09;95399.63;6120379;19;1445;-84
2022/10/14 02:52:21;;;;;;;;;;;;;;;20.25;49.72;95387.91;6120963;19;1425;-83
2022/10/14 02:54:28;;;;;;;;;;;;;;;20.28;49.98;95398.19;6119675;19;1466;-90
2022/10/14 02:56:31;;;;;;;;;;;;;;;20.33;50.03;95397.59;6122729;19;1512;-83
2022/10/14 02:58:36;;;;;;;;;;;;;;;20.20;50.44;95393.03;6104277;19;1865;-85
2022/10/14 03:00:39;;;;;;;;;;;;;;;20.31;50.14;95386.28;6120404;19;1422;-85
2022/10/14 03:02:43;;;;;;;;;;;;;;;20.33;49.71;95379.72;6118152;19;1418;-81
2022/10/14 03:04:47;;;;;;;;;;;;;;;20.33;49.79;95377.06;6119502;19;1446;-92
2022/10/14 03:06:51;;;;;;;;;;;;;;;19.63;45.14;95375.53;6121724;19;1430;-83
2022/10/14 03:08:54;;;;;;;;;;;;;;;19.26;45.05;95376.72;6109227;19;1591;-78
2022/10/14 03:11:00;;;;;;;;;;;;;;;19.08;45.01;95377.19;6110205;19;1443;-79
2022/10/14 03:13:03;;;;;;;;;;;;;;;19.00;44.62;95368.31;6121518;19;1440;-82
2022/10/14 03:15:08;;;;;;;;;;;;;;;19.02;44.71;95377.97;6119291;19;1461;-80
2022/10/14 03:17:11;;;;;;;;;;;;;;;18.95;43.65;95372.56;6120376;19;1852;-80
2022/10/14 03:19:14;;;;;;;;;;;;;;;18.83;43.36;95374.94;6118744;19;1445;-80
2022/10/14 03:21:18;;;;;;;;;;;;;;;18.74;42.89;95381.41;6097847;19;1479;-81
2022/10/14 03:23:21;;;;;;;;;;;;;;;18.69;43.34;95389.16;6119538;19;1634;-79
2022/10/14 03:25:25;;;;;;;;;;;;;;;18.65;43.07;95386.06;6121476;19;1507;-81
2022/10/14 03:27:31;;;;;;;;;;;;;;;18.62;42.59;95380.25;6121658;19;1351;-80
2022/10/14 03:29:35;;;;;;;;;;;;;;;18.57;42.49;95377.34;6118359;19;1508;-80
2022/10/14 03:31:38;;;;;;;;;;;;;;;18.62;42.57;95367.78;6110730;19;1240;-82
2022/10/14 03:33:41;;;;;;;;;;;;;;;19.05;43.11;95373.09;6110692;19;1148;-86
2022/10/14 03:35:45;;;;;;;;;;;;;;;19.34;44.90;95372.06;6116577;19;1371;-81
2022/10/14 03:37:53;;;;;;;;;;;;;;;19.51;45.32;95372.56;6117894;19;1834;-82
2022/10/14 03:39:57;;;;;;;;;;;;;;;19.62;45.10;95377.38;6117412;19;1467;-82
2022/10/14 03:42:00;;;;;;;;;;;;;;;19.69;45.37;95369.44;6117334;19;1437;-82
2022/10/14 03:44:06;;;;;;;;;;;;;;;19.76;45.16;95378.28;6102346;19;1559;-81
2022/10/14 03:46:10;;;;;;;;;;;;;;;19.80;45.43;95376.84;6118032;19;1150;-81
2022/10/14 03:48:13;;;;;;;;;;;;;;;19.85;45.03;95378.94;6120413;19;1531;-81
2022/10/14 03:50:17;;;;;;;;;;;;;;;19.88;45.09;95374.03;6121417;19;1515;-83
2022/10/14 03:52:20;;;;;;;;;;;;;;;19.87;44.97;95374.25;6118713;19;1540;-81
2022/10/14 03:54:23;;;;;;;;;;;;;;;19.86;44.95;95378.75;6117840;19;1524;-85
2022/10/14 03:56:27;;;;;;;;;;;;;;;19.87;45.26;95375.06;6104072;19;1506;-83
2022/10/14 03:58:30;;;;;;;;;;;;;;;19.87;45.32;95369.72;6117914;19;1852;-84
2022/10/14 04:00:43;;;;;;;;;;;;;;;19.89;45.48;95373.03;6119946;19;1410;-87
2022/10/14 04:02:46;;;;;;;;;;;;;;;19.94;45.43;95367.06;6119685;19;1195;-87
2022/10/14 04:04:49;;;;;;;;;;;;;;;19.95;45.56;95362.59;6119138;19;1471;-86
2022/10/14 04:06:53;;;;;;;;;;;;;;;19.94;45.29;95363.59;6102396;19;1499;-88
2022/10/14 04:08:56;;;;;;;;;;;;;;;19.93;45.22;95364.63;6121013;19;1053;-87
2022/10/14 04:11:00;;;;;;;;;;;;;;;19.89;45.22;95359.69;6118957;19;1405;-88
2022/10/14 04:13:03;;;;;;;;;;;;;;;19.91;45.51;95361.31;6118763;19;1388;-87
2022/10/14 04:15:07;;;;;;;;;;;;;;;19.90;45.16;95360.50;6124020;19;1500;-88
2022/10/14 04:17:13;;;;;;;;;;;;;;;19.89;45.05;95364.19;6121806;19;1183;-88
2022/10/14 04:19:19;;;;;;;;;;;;;;;19.88;44.82;95366.03;6100504;19;1845;-89
2022/10/14 04:21:22;;;;;;;;;;;;;;;19.89;44.94;95359.69;6123597;19;1422;-84
2022/10/14 04:23:27;;;;;;;;;;;;;;;19.84;45.05;95359.44;6114522;19;1570;-83
2022/10/14 04:25:31;;;;;;;;;;;;;;;19.79;44.96;95353.88;6116192;19;1506;-81
2022/10/14 04:27:35;;;;;;;;;;;;;;;19.80;45.29;95357.38;6115037;19;1463;-82
2022/10/14 04:29:40;;;;;;;;;;;;;;;19.79;45.09;95351.22;6094848;19;1498;-82
2022/10/14 04:31:45;;;;;;;;;;;;;;;19.78;44.97;95346.91;6118390;19;1480;-82
2022/10/14 04:33:51;;;;;;;;;;;;;;;19.78;45.01;95346.91;6121401;19;1388;-88
2022/10/14 04:35:58;;;;;;;;;;;;;;;19.81;44.56;95351.03;6123170;19;1015;-83
2022/10/14 04:38:02;;;;;;;;;;;;;;;19.78;44.76;95344.25;6118227;19;1858;-83
2022/10/14 04:40:05;;;;;;;;;;;;;;;19.77;44.96;95344.44;6118921;19;1380;-83
2022/10/14 04:42:09;;;;;;;;;;;;;;;19.76;44.99;95348.13;6100328;19;1412;-82
2022/10/14 04:44:12;;;;;;;;;;;;;;;19.75;44.47;95347.31;6118965;19;1471;-83
2022/10/14 04:46:16;;;;;;;;;;;;;;;19.75;44.57;95346.47;6117794;19;1379;-82
2022/10/14 04:48:19;;;;;;;;;;;;;;;19.76;44.37;95345.47;6118418;19;1399;-84
2022/10/14 04:50:25;;;;;;;;;;;;;;;19.73;44.42;95346.69;6119039;19;1399;-84
2022/10/14 04:52:29;;;;;;;;;;;;;;;19.60;44.69;95343.94;6106499;19;1412;-88
2022/10/14 04:54:32;;;;;;;;;;;;;;;19.22;43.72;95338.97;6122401;19;1554;-88
2022/10/14 04:56:36;;;;;;;;;;;;;;;19.08;43.25;95342.56;6124956;19;1049;-88
2022/10/14 04:58:39;;;;;;;;;;;;;;;18.98;43.25;95333.09;6122970;19;1844;-88
2022/10/14 05:00:43;;;;;;;;;;;;;;;18.91;43.07;95329.53;6124004;19;1494;-88
2022/10/14 05:02:46;;;;;;;;;;;;;;;18.86;42.34;95337.28;6123372;19;1477;-88
2022/10/14 05:04:50;;;;;;;;;;;;;;;18.77;42.33;95336.59;6106227;19;1468;-88
2022/10/14 05:06:56;;;;;;;;;;;;;;;18.75;42.45;95336.00;6124477;19;1167;-89
2022/10/14 05:08:59;;;;;;;;;;;;;;;18.72;41.85;95335.53;6125453;19;1049;-87
2022/10/14 05:11:03;;;;;;;;;;;;;;;18.65;41.79;95331.97;6124555;19;1029;-88
2022/10/14 05:13:06;;;;;;;;;;;;;;;18.58;41.67;95336.41;6125431;19;1096;-88
2022/10/14 05:15:11;;;;;;;;;;;;;;;18.49;41.89;95328.53;6106993;19;1106;-88
2022/10/14 05:17:14;;;;;;;;;;;;;;;18.46;41.31;95333.44;6122458;19;1425;-88
2022/10/14 05:19:18;;;;;;;;;;;;;;;18.42;41.56;95330.34;6121266;19;1853;-88
2022/10/14 05:21:21;;;;;;;;;;;;;;;18.42;41.91;95333.00;6123552;19;1606;-88
2022/10/14 05:23:28;;;;;;;;;;;;;;;18.42;41.65;95333.00;6124684;19;1049;-88
2022/10/14 05:25:31;;;;;;;;;;;;;;;18.43;41.94;95342.59;6122553;19;1482;-88
2022/10/14 05:27:35;;;;;;;;;;;;;;;18.40;41.93;95339.50;6104404;19;1476;-88
2022/10/14 05:29:38;;;;;;;;;;;;;;;18.39;41.88;95333.38;6122215;19;1379;-89
2022/10/14 05:31:41;;;;;;;;;;;;;;;18.64;41.62;95333.00;6122870;19;1144;-85
2022/10/14 05:33:45;;;;;;;;;;;;;;;18.94;42.45;95334.47;6122658;19;1398;-87
2022/10/14 05:35:49;;;;;;;;;;;;;;;19.14;42.33;95333.81;6124214;19;994;-87
2022/10/14 05:37:57;;;;;;;;;;;;;;;19.27;42.71;95333.91;6105546;19;1379;-87
2022/10/14 05:40:08;;;;;;;;;;;;;;;19.37;42.81;95337.03;6122366;19;1859;-86
2022/10/14 05:42:12;;;;;;;;;;;;;;;19.45;42.97;95336.06;6124151;19;1494;-88
2022/10/14 05:44:18;;;;;;;;;;;;;;;19.51;42.85;95345.09;6123762;19;1501;-88
2022/10/14 05:46:22;;;;;;;;;;;;;;;19.56;42.80;95340.03;6123131;19;1485;-88
2022/10/14 05:48:26;;;;;;;;;;;;;;;19.61;43.18;95348.28;6116462;19;1505;-91
2022/10/14 05:50:29;;;;;;;;;;;;;;;19.64;42.89;95354.03;6112629;19;1490;-87
2022/10/14 05:52:34;;;;;;;;;;;;;;;19.68;43.33;95346.44;6127111;19;1403;-89
2022/10/14 05:54:38;;;;;;;;;;;;;;;19.70;43.18;95348.94;6124269;19;1579;-87
2022/10/14 05:56:45;;;;;;;;;;;;;;;19.73;43.47;95351.19;6123339;19;1359;-86
2022/10/14 05:58:49;;;;;;;;;;;;;;;19.75;43.56;95365.13;6123419;19;1852;-87
2022/10/14 06:00:55;;;;;;;;;;;;;;;19.77;43.50;95365.78;6101135;19;1501;-86
2022/10/14 06:03:01;;;;;;;;;;;;;;;19.79;43.52;95359.22;6121812;19;1574;-85
2022/10/14 06:05:07;;;;;;;;;;;;;;;19.79;43.69;95364.56;6122889;19;1060;-84
2022/10/14 06:07:13;;;;;;;;;;;;;;;19.82;43.53;95363.34;6122537;19;1452;-90
2022/10/14 06:09:19;;;;;;;;;;;;;;;19.83;43.87;95370.31;6122478;19;1449;-89
2022/10/14 06:11:24;;;;;;;;;;;;;;;19.84;43.67;95370.13;6112213;19;1457;-85
2022/10/14 06:13:31;;;;;;;;;;;;;;;19.86;43.67;95370.75;6108092;19;1567;-85
2022/10/14 06:15:37;;;;;;;;;;;;;;;19.84;43.54;95372.78;6124172;19;1165;-88
2022/10/14 06:17:45;;;;;;;;;;;;;;;19.84;43.71;95366.63;6121176;19;1503;-88
2022/10/14 06:19:50;;;;;;;;;;;;;;;19.83;43.90;95370.31;6120886;19;1849;-89
2022/10/14 06:21:55;;;;;;;;;;;;;;;19.82;43.47;95379.34;6122518;19;1384;-87
2022/10/14 06:24:00;;;;;;;;;;;;;;;19.81;43.40;95378.53;6106351;19;1093;-92
2022/10/14 06:26:07;;;;;;;;;;;;;;;19.81;43.52;95369.69;6120526;19;1580;-86
2022/10/14 06:28:12;;;;;;;;;;;;;;;19.83;43.70;95371.16;6123448;19;1116;-87
2022/10/14 06:30:19;;;;;;;;;;;;;;;19.88;43.59;95374.03;6122254;19;1065;-80
2022/10/14 06:32:23;;;;;;;;;;;;;;;19.80;43.85;95376.84;6118882;19;1536;-79
2022/10/14 06:34:27;;;;;;;;;;;;;;;19.77;43.79;95377.25;6106645;19;1448;-82
2022/10/14 06:36:31;;;;;;;;;;;;;;;19.84;43.50;95382.63;6120925;19;1431;-88
2022/10/14 06:38:37;;;;;;;;;;;;;;;19.85;43.71;95379.75;6120352;19;1845;-87
2022/10/14 06:40:44;;;;;;;;;;;;;;;19.88;43.92;95390.03;6120826;19;1471;-88
2022/10/14 06:42:51;;;;;;;;;;;;;;;19.89;43.68;95380.22;6123480;19;1018;-87
2022/10/14 06:44:55;;;;;;;;;;;;;;;19.93;43.98;95380.63;6120391;19;1553;-87
2022/10/14 06:47:02;;;;;;;;;;;;;;;19.94;43.63;95385.75;6102086;19;1476;-87
2022/10/14 06:49:07;;;;;;;;;;;;;;;19.93;44.15;95380.63;6118901;19;1420;-81
2022/10/14 06:51:12;;;;;;;;;;;;;;;19.98;43.53;95383.53;6121076;19;1529;-86
2022/10/14 06:53:16;;;;;;;;;;;;;;;19.97;44.02;95379.19;6122538;19;1242;-87
2022/10/14 06:55:25;;;;;;;;;;;;;;;19.97;44.04;95381.84;6119673;19;1310;-86
2022/10/14 06:57:31;;;;;;;;;;;;;;;19.98;44.17;95375.53;6097139;19;1578;-84
2022/10/14 06:59:37;;;;;;;;;;;;;;;20.01;44.06;95377.78;6118948;19;1813;-80
2022/10/14 07:01:42;;;;;;;;;;;;;;;20.02;44.09;95379.41;6118714;19;1080;-81
2022/10/14 07:03:49;;;;;;;;;;;;;;;20.01;43.97;95372.47;6118144;19;1393;-82
2022/10/14 07:05:54;;;;;;;;;;;;;;;20.02;44.09;95372.25;6118397;19;1223;-82
2022/10/14 07:08:00;;;;;;;;;;;;;;;20.03;44.27;95379.25;6109039;19;1029;-82
2022/10/14 07:10:04;;;;;;;;;;;;;;;20.03;44.09;95370.38;6108285;19;1112;-82
2022/10/14 07:12:09;;;;;;;;;;;;;;;20.03;43.99;95368.56;6119853;19;1497;-84
2022/10/14 07:14:13;;;;;;;;;;;;;;;20.03;44.26;95373.91;6120142;19;1083;-84
2022/10/14 07:16:18;;;;;;;;;;;;;;;20.05;44.17;95373.69;6119412;19;1151;-85
2022/10/14 07:18:22;;;;;;;;;;;;;;;20.06;44.31;95370.00;6119496;19;1073;-80
2022/10/14 07:20:29;;;;;;;;;;;;;;;20.07;44.31;95379.66;6098637;19;1833;-79
2022/10/14 07:22:35;;;;;;;;;;;;;;;20.10;44.06;95372.06;6118288;19;1452;-79
2022/10/14 07:24:39;;;;;;;;;;;;;;;19.98;44.65;95381.66;6118672;19;1084;-80
2022/10/14 07:26:44;;;;;;;;;;;;;;;19.87;44.45;95372.38;6117540;19;1571;-80
2022/10/14 07:28:48;;;;;;;;;;;;;;;19.83;44.57;95365.81;6118544;19;1104;-80
2022/10/14 07:30:59;;;;;;;;;;;;;;;19.79;44.79;95375.22;6108970;19;1210;-81
2022/10/14 07:33:03;;;;;;;;;;;;;;;19.76;44.68;95372.94;6111386;19;1496;-81
2022/10/14 07:35:08;;;;;;;;;;;;;;;19.76;44.33;95367.63;6118559;19;1102;-81
2022/10/14 07:37:15;;;;;;;;;;;;;;;19.74;44.36;95366.97;6118576;19;1060;-81
2022/10/14 07:39:20;;;;;;;;;;;;;;;19.74;44.24;95371.50;6117620;19;1841;-81
2022/10/14 07:41:25;;;;;;;;;;;;;;;19.83;43.51;95370.31;6119068;19;1135;-83
2022/10/14 07:43:30;;;;;;;;;;;;;;;19.87;42.99;95372.38;6099644;19;1009;-81
2022/10/14 07:45:35;;;;;;;;;;;;;;;19.90;43.00;95371.16;6118369;19;1021;-81
2022/10/14 07:47:40;;;;;;;;;;;;;;;19.97;42.89;95360.53;6116570;19;1387;-78
2022/10/14 07:49:45;;;;;;;;;;;;;;;19.97;43.24;95372.00;6117037;19;1457;-78
2022/10/14 07:51:50;;;;;;;;;;;;;;;19.97;42.86;95372.00;6116560;19;1567;-79
2022/10/14 07:53:58;;;;;;;;;;;;;;;20.02;43.00;95374.09;6100064;19;1099;-83
2022/10/14 07:56:03;;;;;;;;;;;;;;;20.04;43.02;95369.38;6118462;19;1158;-81
2022/10/14 07:58:07;;;;;;;;;;;;;;;20.04;43.08;95366.72;6118493;19;1120;-80
2022/10/14 08:00:13;;;;;;;;;;;;;;;20.03;43.33;95368.56;6116172;19;1849;-79
2022/10/14 08:02:20;;;;;;;;;;;;;;;20.04;43.16;95366.72;6117901;19;1067;-79
2022/10/14 08:04:29;;;;;;;;;;;;;;;20.07;43.21;95368.97;6116353;19;1226;-82
2022/10/14 08:06:34;;;;;;;;;;;;;;;20.06;43.39;95362.00;6105460;19;1552;-79
2022/10/14 08:08:39;;;;;;;;;;;;;;;20.09;43.30;95364.28;6124260;19;1068;-79
2022/10/14 08:10:48;;;;;;;;;;;;;;;20.09;43.57;95367.78;6121924;19;1534;-81
2022/10/14 08:12:56;;;;;;;;;;;;;;;20.10;43.20;95358.72;6121680;19;1501;-78
2022/10/14 08:15:03;;;;;;;;;;;;;;;20.10;43.26;95366.72;6121286;19;1460;-78
2022/10/14 08:17:10;;;;;;;;;;;;;;;20.11;43.56;95364.88;6103840;19;1084;-79
2022/10/14 08:19:15;;;;;;;;;;;;;;;20.11;43.70;95362.22;6121700;19;1849;-80
2022/10/14 08:21:23;;;;;;;;;;;;;;;20.11;43.45;95371.03;6121574;19;1467;-77
2022/10/14 08:23:29;;;;;;;;;;;;;;;20.11;43.56;95367.56;6123217;19;1109;-76
2022/10/14 08:25:38;;;;;;;;;;;;;;;20.13;43.65;95362.84;6121736;19;1453;-79
2022/10/14 08:27:49;;;;;;;;;;;;;;;20.11;43.59;95359.53;6112015;19;1438;-81
2022/10/14 08:29:54;;;;;;;;;;;;;;;20.13;44.04;95365.50;6120471;19;1440;-80
2022/10/14 08:32:01;;;;;;;;;;;;;;;20.15;43.56;95368.00;6123225;19;877;-84
2022/10/14 08:34:06;;;;;;;;;;;;;;;20.10;43.66;95366.72;6122079;19;1502;-81
2022/10/14 08:36:10;;;;;;;;;;;;;;;20.03;42.40;95359.72;6121799;19;1413;-79
2022/10/14 08:38:15;;;;;;;;;;;;;;;19.62;41.64;95363.25;6121540;19;1498;-76
2022/10/14 08:40:20;;;;;;;;;;;;;;;19.30;38.90;95351.34;6108435;19;1837;-78
2022/10/14 08:42:36;;;;;;;;;;;;;;;19.11;38.78;95366.16;6123441;19;1025;-79
2022/10/14 08:44:48;;;;;;;;;;;;;;;18.92;37.42;95360.50;6123404;19;1120;-79
2022/10/14 08:46:54;;;;;;;;;;;;;;;18.95;37.50;95362.78;6120757;19;1553;-80
2022/10/14 08:49:06;;;;;;;;;;;;;;;18.88;37.06;95363.72;6120466;19;1482;-78
2022/10/14 08:51:12;;;;;;;;;;;;;;;18.88;37.91;95364.53;6103243;19;1460;-78
2022/10/14 08:53:19;;;;;;;;;;;;;;;18.98;38.28;95373.03;6122157;19;1063;-78
2022/10/14 08:55:29;;;;;;;;;;;;;;;19.00;39.03;95370.97;6121415;19;1326;-81
2022/10/14 08:57:41;;;;;;;;;;;;;;;19.16;39.51;95377.06;6123607;19;1432;-79
2022/10/14 08:59:48;;;;;;;;;;;;;;;19.34;38.83;95369.38;6120881;19;1834;-82
2022/10/14 09:01:55;;;;;;;;;;;;;;;19.50;38.59;95365.59;6103651;19;1042;-79
2022/10/14 09:04:04;;;;;;;;;;;;;;;19.62;38.59;95365.91;6122420;19;1216;-80
2022/10/14 09:06:09;;;;;;;;;;;;;;;19.69;38.76;95363.25;6120724;19;1175;-80
2022/10/14 09:08:17;;;;;;;;;;;;;;;19.74;38.69;95372.31;6122262;19;1128;-80
2022/10/14 09:10:27;;;;;;;;;;;;;;;19.77;38.79;95355.91;6122780;19;1164;-80
2022/10/14 09:12:34;;;;;;;;;;;;;;;19.81;38.60;95359.03;6112119;19;1465;-80
2022/10/14 09:14:39;;;;;;;;;;;;;;;19.84;39.08;95355.97;6112509;19;1263;-78
2022/10/14 09:16:48;;;;;;;;;;;;;;;19.88;39.10;95362.53;6121894;19;1092;-80
2022/10/14 09:18:54;;;;;;;;;;;;;;;19.89;38.94;95357.03;6120846;19;1553;-78
2022/10/14 09:21:00;;;;;;;;;;;;;;;19.93;39.11;95351.28;6120900;19;1838;-78
2022/10/14 09:23:14;;;;;;;;;;;;;;;19.95;39.07;95363.41;6120008;19;1459;-79
2022/10/14 09:25:28;;;;;;;;;;;;;;;19.98;39.44;95356.84;6104609;19;1104;-81
2022/10/14 09:27:32;;;;;;;;;;;;;;;20.01;39.44;95353.78;6120183;19;1355;-79
2022/10/14 09:29:43;;;;;;;;;;;;;;;20.03;39.53;95355.22;6118877;19;1512;-79
2022/10/14 09:31:51;;;;;;;;;;;;;;;20.04;39.54;95353.38;6122392;19;1049;-79
2022/10/14 09:34:00;;;;;;;;;;;;;;;20.05;39.74;95358.50;6122058;19;1108;-80
2022/10/14 09:36:05;;;;;;;;;;;;;;;20.08;39.88;95352.75;6101747;19;1460;-79
2022/10/14 09:38:09;;;;;;;;;;;;;;;20.08;39.82;95351.94;6119679;19;1392;-79
2022/10/14 09:40:22;;;;;;;;;;;;;;;20.10;40.27;95355.25;6120469;19;1849;-79
2022/10/14 09:42:30;;;;;;;;;;;;;;;20.11;40.32;95351.53;6119912;19;1433;-79
2022/10/14 09:44:34;;;;;;;;;;;;;;;20.11;40.47;95357.69;6119451;19;1409;-80
2022/10/14 09:46:40;;;;;;;;;;;;;;;20.13;40.55;95354.84;6111319;19;1387;-79
2022/10/14 09:48:50;;;;;;;;;;;;;;;20.13;40.33;95349.50;6112309;19;1049;-81
2022/10/14 09:50:56;;;;;;;;;;;;;;;20.15;40.29;95346.66;6119464;19;1523;-83
2022/10/14 09:53:03;;;;;;;;;;;;;;;20.19;40.57;95358.56;6121651;19;1089;-80
2022/10/14 09:55:22;;;;;;;;;;;;;;;20.18;40.70;95355.06;6119292;19;1459;-79
2022/10/14 09:57:28;;;;;;;;;;;;;;;20.18;41.18;95354.25;6119471;19;1504;-80
2022/10/14 09:59:33;;;;;;;;;;;;;;;20.17;41.00;95364.06;6102531;19;1021;-79
2022/10/14 10:01:41;;;;;;;;;;;;;;;20.17;41.31;95350.75;6119479;19;1842;-79
2022/10/14 10:03:51;;;;;;;;;;;;;;;20.16;41.28;95357.09;6119620;19;1479;-79
2022/10/14 10:06:03;;;;;;;;;;;;;;;20.17;41.38;95360.59;6119646;19;1180;-81
2022/10/14 10:08:17;;;;;;;;;;;;;;;20.17;41.58;95357.91;6120785;19;1028;-79
2022/10/14 10:10:24;;;;;;;;;;;;;;;20.17;41.62;95365.94;6102209;19;1124;-80
2022/10/14 10:12:34;;;;;;;;;;;;;;;20.19;41.55;95353.22;6119475;19;1582;-80
2022/10/14 10:14:39;;;;;;;;;;;;;;;20.19;41.65;95347.88;6120142;19;1076;-81
2022/10/14 10:16:46;;;;;;;;;;;;;;;20.19;41.41;95353.22;6120530;19;1095;-79
2022/10/14 10:18:54;;;;;;;;;;;;;;;20.20;41.52;95347.66;6119474;19;1481;-79
2022/10/14 10:21:06;;;;;;;;;;;;;;;20.20;41.43;95354.84;6102501;19;1843;-80
2022/10/14 10:23:24;;;;;;;;;;;;;;;20.20;41.46;95355.66;6120222;19;1211;-80
2022/10/14 10:25:30;;;;;;;;;;;;;;;20.20;41.90;95334.31;6119267;19;1603;-80
2022/10/14 10:27:35;;;;;;;;;;;;;;;20.20;41.54;95342.31;6118972;19;1389;-82
2022/10/14 10:29:39;;;;;;;;;;;;;;;20.23;41.77;95338.44;6117917;19;1043;-79
2022/10/14 10:32:00;;;;;;;;;;;;;;;20.21;42.01;95336.00;6110473;19;1584;-80
2022/10/14 10:34:16;;;;;;;;;;;;;;;20.23;41.87;95330.44;6110136;19;1401;-79
2022/10/14 10:38:41;;;;;;;;;;;;;;;20.31;41.79;95346.25;6118758;19;1056;-84
2022/10/14 10:40:49;;;;;;;;;;;;;;;20.34;42.02;95332.50;6121664;19;1853;-80
2022/10/14 10:43:00;;;;;;;;;;;;;;;20.34;42.09;95327.19;6115374;19;1540;-81
2022/10/14 10:45:08;;;;;;;;;;;;;;;20.36;41.84;95317.13;6109496;19;1467;-84
2022/10/14 10:47:19;;;;;;;;;;;;;;;20.36;42.16;95316.31;6119828;19;1480;-84
2022/10/14 10:49:38;;;;;;;;;;;;;;;20.38;41.98;95314.31;6118668;19;1508;-81
2022/10/14 10:51:47;;;;;;;;;;;;;;;20.38;42.26;95319.63;6119252;19;1077;-81
2022/10/14 10:53:59;;;;;;;;;;;;;;;20.38;42.05;95308.97;6120005;19;1194;-82
2022/10/14 10:56:12;;;;;;;;;;;;;;;20.38;42.26;95322.31;6101304;19;1523;-81
2022/10/14 10:58:20;;;;;;;;;;;;;;;20.37;42.18;95305.44;6119980;19;978;-83
2022/10/14 11:00:23;;;;;;;;;;;;;;;20.36;42.33;95311.78;6119816;19;1833;-82
2022/10/14 11:02:43;;;;;;;;;;;;;;;20.39;41.94;95314.09;6120831;19;1029;-80
2022/10/14 11:04:52;;;;;;;;;;;;;;;20.37;42.32;95307.31;6118397;19;1396;-82
2022/10/14 11:13:57;;;;;;;;;;;;;;;20.39;42.25;95290.06;6119389;19;790;-85
2022/10/14 11:16:06;;;;;;;;;;;;;;;20.40;42.29;95301.56;6118882;19;1550;-83